BKN627 KORD-KMCO
Flight info
| Callsign | BKN627 |
|---|---|
| Flight time | 2h 0m |
| Altitude | 35000 |
| Route | DENNT DARCY DREGS DUMGE SCOTO SWAPP Q79 THRSR ZJAYX GRNCH5 |
| Aircraft | B753/M-SDE2E3FGHIJ3J4J7RWXY/LB1 |
Departure
| Time | 2026-04-22 21:33 |
|---|---|
| Airport | Chicago O'Hare International Airport (KORD) |
Arrival
| Time | 2026-04-22 23:34 |
|---|---|
| Airport | Orlando International Airport (KMCO) |
| Time | Latitude | Longitude | Altitude | Speed | Heading |
|---|---|---|---|---|---|
| 2026-04-22 20:57 | 41.97354 | -87.88728 | 654 ft | 0 kts | 359° |
| 2026-04-22 21:19 | 41.97341 | -87.88728 | 654 ft | 2 kts | 359° |
| 2026-04-22 21:19 | 41.97326 | -87.88727 | 654 ft | 2 kts | 360° |
| 2026-04-22 21:19 | 41.97311 | -87.88727 | 654 ft | 2 kts | 359° |
| 2026-04-22 21:19 | 41.97296 | -87.88726 | 655 ft | 1 kts | 336° |
| 2026-04-22 21:20 | 41.97285 | -87.88716 | 655 ft | 1 kts | 325° |
| 2026-04-22 21:20 | 41.97282 | -87.88714 | 655 ft | 0 kts | 327° |
| 2026-04-22 21:23 | 41.97287 | -87.88719 | 655 ft | 1 kts | 314° |
| 2026-04-22 21:23 | 41.97288 | -87.88750 | 655 ft | 6 kts | 259° |
| 2026-04-22 21:23 | 41.97275 | -87.88826 | 655 ft | 10 kts | 258° |
| 2026-04-22 21:23 | 41.97259 | -87.88905 | 655 ft | 7 kts | 239° |
| 2026-04-22 21:24 | 41.97210 | -87.88927 | 656 ft | 8 kts | 182° |
| 2026-04-22 21:24 | 41.97139 | -87.88930 | 657 ft | 12 kts | 180° |
| 2026-04-22 21:24 | 41.97059 | -87.88944 | 657 ft | 11 kts | 221° |
| 2026-04-22 21:24 | 41.97044 | -87.89059 | 657 ft | 14 kts | 269° |
| 2026-04-22 21:25 | 41.97042 | -87.89212 | 657 ft | 18 kts | 269° |
| 2026-04-22 21:25 | 41.97042 | -87.89387 | 657 ft | 18 kts | 270° |
| 2026-04-22 21:25 | 41.97042 | -87.89552 | 657 ft | 17 kts | 269° |
| 2026-04-22 21:25 | 41.97042 | -87.89709 | 658 ft | 15 kts | 270° |
| 2026-04-22 21:26 | 41.97042 | -87.89839 | 660 ft | 13 kts | 270° |
| 2026-04-22 21:26 | 41.97042 | -87.89977 | 661 ft | 15 kts | 270° |
| 2026-04-22 21:26 | 41.97042 | -87.90131 | 663 ft | 16 kts | 270° |
| 2026-04-22 21:26 | 41.97043 | -87.90284 | 666 ft | 16 kts | 270° |
| 2026-04-22 21:27 | 41.97042 | -87.90441 | 667 ft | 17 kts | 269° |
| 2026-04-22 21:27 | 41.97041 | -87.90610 | 669 ft | 18 kts | 270° |
| 2026-04-22 21:27 | 41.97041 | -87.90781 | 670 ft | 19 kts | 270° |
| 2026-04-22 21:27 | 41.97041 | -87.90969 | 670 ft | 21 kts | 269° |
| 2026-04-22 21:28 | 41.97040 | -87.91137 | 670 ft | 14 kts | 270° |
| 2026-04-22 21:28 | 41.97041 | -87.91275 | 670 ft | 15 kts | 271° |
| 2026-04-22 21:28 | 41.97042 | -87.91431 | 670 ft | 17 kts | 271° |
| 2026-04-22 21:28 | 41.97042 | -87.91598 | 670 ft | 16 kts | 270° |
| 2026-04-22 21:29 | 41.97042 | -87.91749 | 670 ft | 16 kts | 268° |
| 2026-04-22 21:29 | 41.97040 | -87.91877 | 670 ft | 13 kts | 269° |
| 2026-04-22 21:29 | 41.97040 | -87.91980 | 672 ft | 9 kts | 270° |
| 2026-04-22 21:29 | 41.97038 | -87.92052 | 673 ft | 6 kts | 262° |
| 2026-04-22 21:30 | 41.97016 | -87.92084 | 673 ft | 1 kts | 194° |
| 2026-04-22 21:30 | 41.97013 | -87.92084 | 673 ft | 0 kts | 189° |
| 2026-04-22 21:30 | 41.97008 | -87.92085 | 673 ft | 3 kts | 187° |
| 2026-04-22 21:30 | 41.96963 | -87.92088 | 673 ft | 8 kts | 179° |
| 2026-04-22 21:31 | 41.96909 | -87.92077 | 673 ft | 5 kts | 132° |
| 2026-04-22 21:31 | 41.96901 | -87.92029 | 673 ft | 0 kts | 90° |
| 2026-04-22 21:32 | 41.96901 | -87.91964 | 673 ft | 27 kts | 90° |
| 2026-04-22 21:33 | 41.96901 | -87.91393 | 670 ft | 94 kts | 89° |
| 2026-04-22 21:33 | 41.96904 | -87.90231 | 666 ft | 154 kts | 89° |
| 2026-04-22 21:33 | 41.96907 | -87.88650 | 955 ft | 181 kts | 88° |
| 2026-04-22 21:33 | 41.96756 | -87.86978 | 1780 ft | 185 kts | 110° |
| 2026-04-22 21:34 | 41.96111 | -87.85448 | 2301 ft | 200 kts | 123° |
| 2026-04-22 21:34 | 41.95260 | -87.83836 | 2720 ft | 222 kts | 126° |
| 2026-04-22 21:34 | 41.94291 | -87.82125 | 3241 ft | 242 kts | 129° |
| 2026-04-22 21:34 | 41.92931 | -87.80702 | 3752 ft | 263 kts | 159° |
| 2026-04-22 21:35 | 41.91106 | -87.80182 | 4413 ft | 277 kts | 176° |
| 2026-04-22 21:35 | 41.89180 | -87.79982 | 5359 ft | 280 kts | 174° |
| 2026-04-22 21:35 | 41.87230 | -87.79705 | 6241 ft | 286 kts | 173° |
| 2026-04-22 21:35 | 41.85264 | -87.79411 | 7109 ft | 291 kts | 173° |
| 2026-04-22 21:36 | 41.83240 | -87.79098 | 7966 ft | 296 kts | 173° |
| 2026-04-22 21:36 | 41.81197 | -87.78775 | 8763 ft | 302 kts | 173° |
| 2026-04-22 21:36 | 41.79086 | -87.78439 | 9584 ft | 307 kts | 173° |
| 2026-04-22 21:36 | 41.76979 | -87.78100 | 10360 ft | 312 kts | 173° |
| 2026-04-22 21:37 | 41.74756 | -87.77743 | 10790 ft | 332 kts | 173° |
| 2026-04-22 21:37 | 41.72398 | -87.77364 | 11194 ft | 351 kts | 173° |
| 2026-04-22 21:37 | 41.69907 | -87.76962 | 11585 ft | 370 kts | 173° |
| 2026-04-22 21:37 | 41.67326 | -87.76547 | 12310 ft | 376 kts | 173° |
| 2026-04-22 21:38 | 41.64719 | -87.76128 | 13026 ft | 383 kts | 173° |
| 2026-04-22 21:38 | 41.62066 | -87.75702 | 13822 ft | 386 kts | 173° |
| 2026-04-22 21:38 | 41.59402 | -87.75274 | 14604 ft | 391 kts | 173° |
| 2026-04-22 21:38 | 41.56673 | -87.74835 | 15308 ft | 397 kts | 173° |
| 2026-04-22 21:39 | 41.53943 | -87.74398 | 16029 ft | 402 kts | 173° |
| 2026-04-22 21:39 | 41.51152 | -87.73951 | 16747 ft | 405 kts | 173° |
| 2026-04-22 21:39 | 41.48350 | -87.73503 | 17428 ft | 410 kts | 174° |
| 2026-04-22 21:39 | 41.45497 | -87.73047 | 18072 ft | 415 kts | 174° |
| 2026-04-22 21:40 | 41.42629 | -87.72598 | 18733 ft | 418 kts | 176° |
| 2026-04-22 21:40 | 41.39726 | -87.72494 | 19269 ft | 422 kts | 182° |
| 2026-04-22 21:40 | 41.36800 | -87.72511 | 19833 ft | 426 kts | 181° |
| 2026-04-22 21:40 | 41.33832 | -87.72520 | 20425 ft | 429 kts | 181° |
| 2026-04-22 21:41 | 41.30829 | -87.72533 | 20950 ft | 434 kts | 181° |
| 2026-04-22 21:41 | 41.27777 | -87.72547 | 21499 ft | 439 kts | 181° |
| 2026-04-22 21:41 | 41.24742 | -87.72562 | 22060 ft | 442 kts | 181° |
| 2026-04-22 21:41 | 41.21641 | -87.72575 | 22562 ft | 447 kts | 180° |
| 2026-04-22 21:42 | 41.18516 | -87.72323 | 23079 ft | 451 kts | 174° |
| 2026-04-22 21:42 | 41.15413 | -87.71910 | 23623 ft | 455 kts | 174° |
| 2026-04-22 21:42 | 41.12250 | -87.71494 | 24189 ft | 458 kts | 174° |
| 2026-04-22 21:42 | 41.09079 | -87.71072 | 24752 ft | 460 kts | 175° |
| 2026-04-22 21:43 | 41.05888 | -87.70645 | 25265 ft | 464 kts | 175° |
| 2026-04-22 21:43 | 41.02672 | -87.70213 | 25821 ft | 466 kts | 175° |
| 2026-04-22 21:43 | 40.99458 | -87.69782 | 26296 ft | 469 kts | 175° |
| 2026-04-22 21:43 | 40.96190 | -87.69343 | 26770 ft | 473 kts | 175° |
| 2026-04-22 21:44 | 40.92886 | -87.68899 | 27252 ft | 476 kts | 175° |
| 2026-04-22 21:44 | 40.89612 | -87.68459 | 27690 ft | 479 kts | 175° |
| 2026-04-22 21:44 | 40.86307 | -87.68016 | 28209 ft | 480 kts | 175° |
| 2026-04-22 21:44 | 40.82984 | -87.67571 | 28621 ft | 484 kts | 175° |
| 2026-04-22 21:45 | 40.79644 | -87.67124 | 29120 ft | 485 kts | 175° |
| 2026-04-22 21:45 | 40.76265 | -87.66673 | 29485 ft | 489 kts | 175° |
| 2026-04-22 21:45 | 40.72873 | -87.66221 | 29971 ft | 490 kts | 175° |
| 2026-04-22 21:45 | 40.69504 | -87.65771 | 30251 ft | 495 kts | 175° |
| 2026-04-22 21:46 | 40.66042 | -87.65310 | 30672 ft | 496 kts | 175° |
| 2026-04-22 21:46 | 40.62638 | -87.64857 | 30976 ft | 500 kts | 175° |
| 2026-04-22 21:46 | 40.59142 | -87.64392 | 31380 ft | 501 kts | 175° |
| 2026-04-22 21:46 | 40.55706 | -87.63934 | 31817 ft | 501 kts | 175° |
| 2026-04-22 21:47 | 40.52216 | -87.63471 | 32214 ft | 501 kts | 175° |
| 2026-04-22 21:47 | 40.48754 | -87.63013 | 32666 ft | 500 kts | 175° |
| 2026-04-22 21:47 | 40.45314 | -87.62556 | 33016 ft | 501 kts | 175° |
| 2026-04-22 21:47 | 40.41843 | -87.62097 | 33438 ft | 500 kts | 175° |
| 2026-04-22 21:48 | 40.38403 | -87.61643 | 33752 ft | 501 kts | 175° |
| 2026-04-22 21:48 | 40.34964 | -87.61146 | 34137 ft | 501 kts | 172° |
| 2026-04-22 21:48 | 40.31548 | -87.60127 | 34543 ft | 501 kts | 162° |
| 2026-04-22 21:48 | 40.28321 | -87.58473 | 34964 ft | 500 kts | 155° |
| 2026-04-22 21:49 | 40.22034 | -87.54580 | 35020 ft | 500 kts | 154° |
| 2026-04-22 21:49 | 40.15792 | -87.50663 | 35026 ft | 497 kts | 154° |
| 2026-04-22 21:50 | 40.09559 | -87.46732 | 35027 ft | 498 kts | 154° |
| 2026-04-22 21:50 | 40.03322 | -87.42799 | 35027 ft | 499 kts | 154° |
| 2026-04-22 21:51 | 39.97102 | -87.38828 | 35028 ft | 498 kts | 152° |
| 2026-04-22 21:52 | 39.87914 | -87.32634 | 35012 ft | 497 kts | 153° |
| 2026-04-22 21:52 | 39.81764 | -87.28505 | 35021 ft | 496 kts | 153° |
| 2026-04-22 21:53 | 39.75647 | -87.24409 | 35024 ft | 497 kts | 153° |
| 2026-04-22 21:53 | 39.69493 | -87.20295 | 35024 ft | 498 kts | 153° |
| 2026-04-22 21:54 | 39.63355 | -87.16202 | 35029 ft | 498 kts | 153° |
| 2026-04-22 21:54 | 39.57210 | -87.12111 | 35032 ft | 496 kts | 153° |
| 2026-04-22 21:55 | 39.51073 | -87.08034 | 35033 ft | 495 kts | 153° |
| 2026-04-22 21:55 | 39.44987 | -87.03999 | 35037 ft | 495 kts | 152° |
| 2026-04-22 21:56 | 39.38834 | -86.99927 | 35039 ft | 496 kts | 153° |
| 2026-04-22 21:56 | 39.32707 | -86.95880 | 35038 ft | 496 kts | 153° |
| 2026-04-22 21:57 | 39.26577 | -86.91840 | 35047 ft | 496 kts | 153° |
| 2026-04-22 21:57 | 39.20419 | -86.87789 | 35046 ft | 496 kts | 153° |
| 2026-04-22 21:58 | 39.14325 | -86.83732 | 35057 ft | 496 kts | 152° |
| 2026-04-22 21:58 | 39.08241 | -86.79591 | 35054 ft | 495 kts | 152° |
| 2026-04-22 21:59 | 39.02181 | -86.75478 | 35057 ft | 494 kts | 152° |
| 2026-04-22 21:59 | 38.96089 | -86.71352 | 35055 ft | 494 kts | 152° |
| 2026-04-22 22:00 | 38.90010 | -86.67244 | 35055 ft | 494 kts | 152° |
| 2026-04-22 22:00 | 38.83942 | -86.63151 | 35061 ft | 495 kts | 151° |
| 2026-04-22 22:01 | 38.77877 | -86.59068 | 35062 ft | 495 kts | 152° |
| 2026-04-22 22:01 | 38.71777 | -86.54970 | 35058 ft | 494 kts | 152° |
| 2026-04-22 22:02 | 38.65705 | -86.50898 | 35062 ft | 494 kts | 152° |
| 2026-04-22 22:02 | 38.59632 | -86.46832 | 35067 ft | 494 kts | 151° |
| 2026-04-22 22:03 | 38.53544 | -86.42766 | 35065 ft | 494 kts | 151° |
| 2026-04-22 22:03 | 38.47451 | -86.38703 | 35062 ft | 493 kts | 151° |
| 2026-04-22 22:04 | 38.41387 | -86.34667 | 35070 ft | 494 kts | 152° |
| 2026-04-22 22:04 | 38.35300 | -86.30624 | 35071 ft | 493 kts | 152° |
| 2026-04-22 22:05 | 38.29237 | -86.26605 | 35074 ft | 492 kts | 152° |
| 2026-04-22 22:05 | 38.23148 | -86.22577 | 35080 ft | 493 kts | 152° |
| 2026-04-22 22:06 | 38.17084 | -86.18572 | 35069 ft | 492 kts | 152° |
| 2026-04-22 22:06 | 38.11016 | -86.14571 | 35082 ft | 493 kts | 152° |
| 2026-04-22 22:07 | 38.04900 | -86.10548 | 35084 ft | 493 kts | 152° |
| 2026-04-22 22:07 | 37.98857 | -86.06579 | 35092 ft | 492 kts | 152° |
| 2026-04-22 22:08 | 37.92773 | -86.02592 | 35089 ft | 491 kts | 152° |
| 2026-04-22 22:08 | 37.86730 | -85.98637 | 35087 ft | 492 kts | 152° |
| 2026-04-22 22:09 | 37.80639 | -85.94660 | 35096 ft | 492 kts | 152° |
| 2026-04-22 22:09 | 37.74560 | -85.90698 | 35096 ft | 492 kts | 152° |
| 2026-04-22 22:10 | 37.68494 | -85.86751 | 35105 ft | 491 kts | 152° |
| 2026-04-22 22:10 | 37.62464 | -85.82835 | 35091 ft | 491 kts | 152° |
| 2026-04-22 22:11 | 37.56400 | -85.78905 | 35096 ft | 491 kts | 152° |
| 2026-04-22 22:11 | 37.50301 | -85.74959 | 35104 ft | 492 kts | 152° |
| 2026-04-22 22:12 | 37.44222 | -85.71033 | 35101 ft | 491 kts | 152° |
| 2026-04-22 22:12 | 37.38158 | -85.67123 | 35102 ft | 490 kts | 152° |
| 2026-04-22 22:13 | 37.32122 | -85.63240 | 35103 ft | 490 kts | 152° |
| 2026-04-22 22:13 | 37.26064 | -85.59349 | 35102 ft | 489 kts | 152° |
| 2026-04-22 22:14 | 37.19983 | -85.55450 | 35104 ft | 491 kts | 152° |
| 2026-04-22 22:14 | 37.13909 | -85.51562 | 35106 ft | 490 kts | 152° |
| 2026-04-22 22:15 | 37.07877 | -85.47710 | 35114 ft | 488 kts | 152° |
| 2026-04-22 22:15 | 37.01830 | -85.43854 | 35119 ft | 489 kts | 152° |
| 2026-04-22 22:16 | 36.95796 | -85.40014 | 35123 ft | 487 kts | 152° |
| 2026-04-22 22:16 | 36.89760 | -85.36179 | 35124 ft | 488 kts | 152° |
| 2026-04-22 22:17 | 36.83730 | -85.32354 | 35117 ft | 487 kts | 152° |
| 2026-04-22 22:17 | 36.77690 | -85.28530 | 35120 ft | 488 kts | 152° |
| 2026-04-22 22:18 | 36.71625 | -85.24697 | 35124 ft | 487 kts | 152° |
| 2026-04-22 22:18 | 36.65622 | -85.20910 | 35133 ft | 487 kts | 152° |
| 2026-04-22 22:19 | 36.59307 | -85.17876 | 35148 ft | 487 kts | 167° |
| 2026-04-22 22:19 | 36.52702 | -85.16047 | 35137 ft | 488 kts | 168° |
| 2026-04-22 22:20 | 36.46048 | -85.14277 | 35146 ft | 487 kts | 168° |
| 2026-04-22 22:20 | 36.39475 | -85.12561 | 35152 ft | 486 kts | 168° |
| 2026-04-22 22:21 | 36.32860 | -85.10847 | 35155 ft | 486 kts | 168° |
| 2026-04-22 22:21 | 36.26231 | -85.09136 | 35156 ft | 487 kts | 168° |
| 2026-04-22 22:22 | 36.19604 | -85.07430 | 35158 ft | 486 kts | 168° |
| 2026-04-22 22:22 | 36.12985 | -85.05730 | 35158 ft | 487 kts | 168° |
| 2026-04-22 22:23 | 36.06378 | -85.04036 | 35166 ft | 486 kts | 168° |
| 2026-04-22 22:23 | 35.99765 | -85.02342 | 35179 ft | 486 kts | 168° |
| 2026-04-22 22:24 | 35.93158 | -85.00654 | 35185 ft | 487 kts | 168° |
| 2026-04-22 22:24 | 35.86505 | -84.98957 | 35165 ft | 486 kts | 168° |
| 2026-04-22 22:25 | 35.79892 | -84.97272 | 35156 ft | 486 kts | 168° |
| 2026-04-22 22:25 | 35.73305 | -84.95598 | 35156 ft | 486 kts | 168° |
| 2026-04-22 22:26 | 35.66678 | -84.93916 | 35151 ft | 486 kts | 168° |
| 2026-04-22 22:26 | 35.60060 | -84.92238 | 35146 ft | 486 kts | 168° |
| 2026-04-22 22:27 | 35.53387 | -84.90547 | 35147 ft | 487 kts | 168° |
| 2026-04-22 22:27 | 35.46787 | -84.88876 | 35142 ft | 486 kts | 168° |
| 2026-04-22 22:28 | 35.40168 | -84.87204 | 35138 ft | 485 kts | 168° |
| 2026-04-22 22:28 | 35.33586 | -84.85545 | 35139 ft | 485 kts | 168° |
| 2026-04-22 22:29 | 35.26978 | -84.83880 | 35146 ft | 486 kts | 168° |
| 2026-04-22 22:29 | 35.20348 | -84.82213 | 35142 ft | 486 kts | 168° |
| 2026-04-22 22:30 | 35.13716 | -84.80548 | 35142 ft | 486 kts | 168° |
| 2026-04-22 22:30 | 35.07088 | -84.78887 | 35141 ft | 485 kts | 168° |
| 2026-04-22 22:31 | 35.00491 | -84.77238 | 35137 ft | 485 kts | 168° |
| 2026-04-22 22:31 | 34.93864 | -84.75582 | 35142 ft | 485 kts | 168° |
| 2026-04-22 22:32 | 34.87282 | -84.73942 | 35136 ft | 486 kts | 168° |
| 2026-04-22 22:32 | 34.80621 | -84.72283 | 35142 ft | 486 kts | 168° |
| 2026-04-22 22:33 | 34.74008 | -84.70640 | 35143 ft | 486 kts | 168° |
| 2026-04-22 22:33 | 34.67392 | -84.68998 | 35144 ft | 485 kts | 168° |
| 2026-04-22 22:34 | 34.60813 | -84.67368 | 35143 ft | 485 kts | 168° |
| 2026-04-22 22:34 | 34.54180 | -84.65676 | 35142 ft | 485 kts | 167° |
| 2026-04-22 22:35 | 34.47606 | -84.63954 | 35143 ft | 485 kts | 167° |
| 2026-04-22 22:35 | 34.40991 | -84.62225 | 35148 ft | 486 kts | 167° |
| 2026-04-22 22:36 | 34.34371 | -84.60498 | 35149 ft | 485 kts | 167° |
| 2026-04-22 22:36 | 34.27829 | -84.58794 | 35155 ft | 485 kts | 167° |
| 2026-04-22 22:37 | 34.21205 | -84.57072 | 35156 ft | 486 kts | 167° |
| 2026-04-22 22:37 | 34.14598 | -84.55356 | 35155 ft | 486 kts | 167° |
| 2026-04-22 22:38 | 34.08003 | -84.53647 | 35154 ft | 485 kts | 167° |
| 2026-04-22 22:38 | 34.01380 | -84.51978 | 35154 ft | 485 kts | 169° |
| 2026-04-22 22:39 | 33.94770 | -84.50527 | 35152 ft | 484 kts | 169° |
| 2026-04-22 22:39 | 33.88113 | -84.49058 | 35146 ft | 485 kts | 169° |
| 2026-04-22 22:40 | 33.81473 | -84.47594 | 35148 ft | 485 kts | 169° |
| 2026-04-22 22:40 | 33.74831 | -84.46133 | 35142 ft | 485 kts | 169° |
| 2026-04-22 22:41 | 33.68227 | -84.44681 | 35152 ft | 485 kts | 169° |
| 2026-04-22 22:41 | 33.61699 | -84.42597 | 35168 ft | 483 kts | 155° |
| 2026-04-22 22:42 | 33.55659 | -84.39115 | 35158 ft | 484 kts | 153° |
| 2026-04-22 22:42 | 33.49628 | -84.35555 | 35159 ft | 483 kts | 152° |
| 2026-04-22 22:43 | 33.43630 | -84.31992 | 35167 ft | 483 kts | 153° |
| 2026-04-22 22:43 | 33.37597 | -84.28405 | 35165 ft | 483 kts | 153° |
| 2026-04-22 22:44 | 33.31594 | -84.24837 | 35162 ft | 484 kts | 153° |
| 2026-04-22 22:44 | 33.25546 | -84.21248 | 35161 ft | 484 kts | 153° |
| 2026-04-22 22:45 | 33.19554 | -84.17696 | 35151 ft | 483 kts | 153° |
| 2026-04-22 22:45 | 33.13536 | -84.14135 | 35151 ft | 483 kts | 153° |
| 2026-04-22 22:46 | 33.07533 | -84.10588 | 35152 ft | 482 kts | 153° |
| 2026-04-22 22:46 | 33.01489 | -84.07023 | 35152 ft | 483 kts | 153° |
| 2026-04-22 22:47 | 32.95468 | -84.03476 | 35154 ft | 483 kts | 153° |
| 2026-04-22 22:47 | 32.89472 | -83.99949 | 35153 ft | 484 kts | 153° |
| 2026-04-22 22:48 | 32.83426 | -83.96397 | 35143 ft | 482 kts | 153° |
| 2026-04-22 22:48 | 32.77418 | -83.92875 | 35149 ft | 482 kts | 153° |
| 2026-04-22 22:49 | 32.71428 | -83.89368 | 35150 ft | 482 kts | 153° |
| 2026-04-22 22:49 | 32.65422 | -83.85857 | 35157 ft | 483 kts | 153° |
| 2026-04-22 22:50 | 32.59405 | -83.82345 | 35155 ft | 483 kts | 153° |
| 2026-04-22 22:50 | 32.53363 | -83.78823 | 35153 ft | 484 kts | 153° |
| 2026-04-22 22:51 | 32.47337 | -83.75316 | 35156 ft | 483 kts | 153° |
| 2026-04-22 22:51 | 32.41317 | -83.71818 | 35158 ft | 483 kts | 153° |
| 2026-04-22 22:52 | 32.35256 | -83.68301 | 35147 ft | 484 kts | 153° |
| 2026-04-22 22:52 | 32.29252 | -83.64822 | 35145 ft | 483 kts | 153° |
| 2026-04-22 22:53 | 32.23207 | -83.61326 | 35144 ft | 484 kts | 153° |
| 2026-04-22 22:53 | 32.17153 | -83.57828 | 35144 ft | 483 kts | 153° |
| 2026-04-22 22:54 | 32.11104 | -83.54340 | 35141 ft | 484 kts | 153° |
| 2026-04-22 22:54 | 32.05064 | -83.50861 | 35142 ft | 483 kts | 154° |
| 2026-04-22 22:55 | 31.99016 | -83.47382 | 35144 ft | 484 kts | 154° |
| 2026-04-22 22:55 | 31.89948 | -83.42178 | 35143 ft | 484 kts | 154° |
| 2026-04-22 22:56 | 31.83891 | -83.38707 | 35148 ft | 484 kts | 154° |
| 2026-04-22 22:56 | 31.77839 | -83.35243 | 35148 ft | 485 kts | 154° |
| 2026-04-22 22:57 | 31.71771 | -83.31777 | 35152 ft | 485 kts | 155° |
| 2026-04-22 22:57 | 31.65695 | -83.28310 | 35154 ft | 485 kts | 155° |
| 2026-04-22 22:58 | 31.59626 | -83.24886 | 35156 ft | 486 kts | 155° |
| 2026-04-22 22:58 | 31.53555 | -83.21482 | 35145 ft | 483 kts | 155° |
| 2026-04-22 22:59 | 31.47459 | -83.18070 | 35143 ft | 484 kts | 155° |
| 2026-04-22 22:59 | 31.41414 | -83.14692 | 35144 ft | 485 kts | 155° |
| 2026-04-22 23:00 | 31.35304 | -83.11282 | 35139 ft | 484 kts | 156° |
| 2026-04-22 23:00 | 31.29246 | -83.07906 | 35144 ft | 484 kts | 156° |
| 2026-04-22 23:01 | 31.23180 | -83.04531 | 35144 ft | 484 kts | 156° |
| 2026-04-22 23:01 | 31.17076 | -83.01138 | 35140 ft | 483 kts | 156° |
| 2026-04-22 23:02 | 31.11009 | -82.97772 | 35146 ft | 484 kts | 156° |
| 2026-04-22 23:02 | 31.04935 | -82.94406 | 35144 ft | 484 kts | 156° |
| 2026-04-22 23:03 | 30.98871 | -82.91052 | 35145 ft | 485 kts | 156° |
| 2026-04-22 23:03 | 30.92755 | -82.87671 | 35150 ft | 485 kts | 156° |
| 2026-04-22 23:04 | 30.86982 | -82.83630 | 35157 ft | 489 kts | 144° |
| 2026-04-22 23:04 | 30.81600 | -82.78813 | 35142 ft | 490 kts | 144° |
| 2026-04-22 23:05 | 30.76194 | -82.73953 | 35142 ft | 489 kts | 144° |
| 2026-04-22 23:05 | 30.70819 | -82.69115 | 35145 ft | 491 kts | 144° |
| 2026-04-22 23:06 | 30.65412 | -82.64249 | 35143 ft | 491 kts | 144° |
| 2026-04-22 23:06 | 30.59991 | -82.59376 | 35146 ft | 494 kts | 144° |
| 2026-04-22 23:07 | 30.54593 | -82.54530 | 35148 ft | 493 kts | 144° |
| 2026-04-22 23:07 | 30.49171 | -82.49670 | 35151 ft | 493 kts | 145° |
| 2026-04-22 23:08 | 30.43764 | -82.44830 | 35152 ft | 494 kts | 145° |
| 2026-04-22 23:08 | 30.38312 | -82.39957 | 35155 ft | 494 kts | 145° |
| 2026-04-22 23:09 | 30.35632 | -82.37563 | 35155 ft | 483 kts | 145° |
| 2026-04-22 23:09 | 30.33001 | -82.35212 | 34980 ft | 471 kts | 145° |
| 2026-04-22 23:09 | 30.30452 | -82.32936 | 34673 ft | 458 kts | 146° |
| 2026-04-22 23:09 | 30.27942 | -82.30698 | 34231 ft | 458 kts | 147° |
| 2026-04-22 23:10 | 30.25399 | -82.28439 | 33759 ft | 468 kts | 147° |
| 2026-04-22 23:10 | 30.22743 | -82.26218 | 33259 ft | 473 kts | 153° |
| 2026-04-22 23:10 | 30.19843 | -82.24465 | 32774 ft | 466 kts | 163° |
| 2026-04-22 23:10 | 30.16788 | -82.23292 | 32225 ft | 463 kts | 173° |
| 2026-04-22 23:11 | 30.13587 | -82.22551 | 31644 ft | 478 kts | 175° |
| 2026-04-22 23:11 | 30.10269 | -82.21845 | 31024 ft | 488 kts | 175° |
| 2026-04-22 23:11 | 30.06945 | -82.21152 | 30306 ft | 490 kts | 175° |
| 2026-04-22 23:11 | 30.03569 | -82.20459 | 29540 ft | 487 kts | 175° |
| 2026-04-22 23:12 | 30.00256 | -82.19789 | 28964 ft | 480 kts | 175° |
| 2026-04-22 23:12 | 29.97015 | -82.19136 | 28548 ft | 471 kts | 175° |
| 2026-04-22 23:12 | 29.93819 | -82.18502 | 27851 ft | 469 kts | 175° |
| 2026-04-22 23:12 | 29.90627 | -82.17864 | 27754 ft | 451 kts | 175° |
| 2026-04-22 23:13 | 29.87601 | -82.17255 | 27189 ft | 444 kts | 175° |
| 2026-04-22 23:13 | 29.84566 | -82.16651 | 26619 ft | 442 kts | 175° |
| 2026-04-22 23:13 | 29.81512 | -82.16043 | 26046 ft | 442 kts | 175° |
| 2026-04-22 23:13 | 29.78497 | -82.15443 | 25479 ft | 441 kts | 174° |
| 2026-04-22 23:14 | 29.75484 | -82.14843 | 24911 ft | 437 kts | 174° |
| 2026-04-22 23:14 | 29.72496 | -82.14247 | 24344 ft | 432 kts | 174° |
| 2026-04-22 23:14 | 29.69545 | -82.13660 | 23806 ft | 428 kts | 174° |
| 2026-04-22 23:14 | 29.66650 | -82.13084 | 23292 ft | 425 kts | 174° |
| 2026-04-22 23:15 | 29.63729 | -82.12505 | 22798 ft | 424 kts | 174° |
| 2026-04-22 23:15 | 29.60823 | -82.11928 | 22285 ft | 423 kts | 174° |
| 2026-04-22 23:15 | 29.57960 | -82.11359 | 21743 ft | 419 kts | 174° |
| 2026-04-22 23:15 | 29.55087 | -82.10789 | 21227 ft | 414 kts | 174° |
| 2026-04-22 23:16 | 29.52298 | -82.10235 | 20799 ft | 408 kts | 174° |
| 2026-04-22 23:16 | 29.49475 | -82.09676 | 20390 ft | 409 kts | 174° |
| 2026-04-22 23:16 | 29.46670 | -82.09122 | 19792 ft | 411 kts | 174° |
| 2026-04-22 23:16 | 29.43889 | -82.08572 | 19276 ft | 404 kts | 173° |
| 2026-04-22 23:17 | 29.41121 | -82.08025 | 18684 ft | 399 kts | 174° |
| 2026-04-22 23:17 | 29.38411 | -82.07490 | 18213 ft | 394 kts | 173° |
| 2026-04-22 23:17 | 29.35718 | -82.06958 | 17780 ft | 392 kts | 173° |
| 2026-04-22 23:17 | 29.33026 | -82.06428 | 17178 ft | 394 kts | 173° |
| 2026-04-22 23:18 | 29.30385 | -82.05600 | 16461 ft | 394 kts | 158° |
| 2026-04-22 23:18 | 29.27974 | -82.04176 | 16033 ft | 386 kts | 153° |
| 2026-04-22 23:18 | 29.25657 | -82.02748 | 15642 ft | 373 kts | 153° |
| 2026-04-22 23:18 | 29.23368 | -82.01327 | 15272 ft | 372 kts | 153° |
| 2026-04-22 23:19 | 29.21078 | -81.99898 | 14889 ft | 377 kts | 153° |
| 2026-04-22 23:19 | 29.18794 | -81.98467 | 14418 ft | 376 kts | 152° |
| 2026-04-22 23:19 | 29.16514 | -81.97036 | 13866 ft | 370 kts | 152° |
| 2026-04-22 23:19 | 29.14298 | -81.95644 | 13451 ft | 361 kts | 152° |
| 2026-04-22 23:20 | 29.12102 | -81.94266 | 13105 ft | 358 kts | 152° |
| 2026-04-22 23:20 | 29.09914 | -81.92893 | 12710 ft | 364 kts | 152° |
| 2026-04-22 23:20 | 29.07706 | -81.91488 | 12104 ft | 364 kts | 148° |
| 2026-04-22 23:20 | 29.05731 | -81.89689 | 11596 ft | 353 kts | 136° |
| 2026-04-22 23:21 | 29.03969 | -81.87809 | 11298 ft | 346 kts | 137° |
| 2026-04-22 23:21 | 29.02193 | -81.85927 | 11020 ft | 353 kts | 136° |
| 2026-04-22 23:21 | 29.00380 | -81.83992 | 10474 ft | 358 kts | 136° |
| 2026-04-22 23:21 | 28.98599 | -81.82075 | 10212 ft | 340 kts | 134° |
| 2026-04-22 23:22 | 28.97109 | -81.80032 | 10150 ft | 342 kts | 127° |
| 2026-04-22 23:22 | 28.95627 | -81.77842 | 9977 ft | 351 kts | 127° |
| 2026-04-22 23:22 | 28.94147 | -81.75660 | 9720 ft | 340 kts | 127° |
| 2026-04-22 23:22 | 28.92711 | -81.73537 | 9530 ft | 345 kts | 127° |
| 2026-04-22 23:23 | 28.91242 | -81.71361 | 9384 ft | 346 kts | 127° |
| 2026-04-22 23:23 | 28.89759 | -81.69166 | 9252 ft | 345 kts | 127° |
| 2026-04-22 23:23 | 28.88298 | -81.67004 | 9086 ft | 344 kts | 127° |
| 2026-04-22 23:23 | 28.86842 | -81.64849 | 8922 ft | 343 kts | 127° |
| 2026-04-22 23:24 | 28.85404 | -81.62723 | 8820 ft | 327 kts | 127° |
| 2026-04-22 23:24 | 28.84076 | -81.60758 | 8456 ft | 307 kts | 127° |
| 2026-04-22 23:24 | 28.82811 | -81.58888 | 8136 ft | 288 kts | 126° |
| 2026-04-22 23:24 | 28.81592 | -81.57086 | 7510 ft | 283 kts | 126° |
| 2026-04-22 23:25 | 28.80404 | -81.55331 | 7223 ft | 276 kts | 126° |
| 2026-04-22 23:25 | 28.79248 | -81.53616 | 7048 ft | 270 kts | 124° |
| 2026-04-22 23:25 | 28.78206 | -81.51836 | 6899 ft | 277 kts | 121° |
| 2026-04-22 23:25 | 28.77161 | -81.49963 | 6743 ft | 277 kts | 122° |
| 2026-04-22 23:26 | 28.76137 | -81.48145 | 6594 ft | 269 kts | 122° |
| 2026-04-22 23:26 | 28.75138 | -81.46375 | 6397 ft | 261 kts | 122° |
| 2026-04-22 23:26 | 28.74174 | -81.44666 | 6226 ft | 254 kts | 120° |
| 2026-04-22 23:26 | 28.73435 | -81.42864 | 6068 ft | 246 kts | 108° |
| 2026-04-22 23:27 | 28.72876 | -81.41054 | 5917 ft | 239 kts | 109° |
| 2026-04-22 23:27 | 28.72329 | -81.39320 | 5778 ft | 232 kts | 108° |
| 2026-04-22 23:27 | 28.71789 | -81.37592 | 5471 ft | 233 kts | 108° |
| 2026-04-22 23:27 | 28.71251 | -81.35867 | 5281 ft | 228 kts | 108° |
| 2026-04-22 23:28 | 28.70563 | -81.34257 | 4962 ft | 230 kts | 131° |
| 2026-04-22 23:28 | 28.69247 | -81.33256 | 4698 ft | 228 kts | 163° |
| 2026-04-22 23:28 | 28.67705 | -81.32986 | 4444 ft | 224 kts | 177° |
| 2026-04-22 23:28 | 28.66167 | -81.32970 | 4201 ft | 217 kts | 176° |
| 2026-04-22 23:29 | 28.64659 | -81.32940 | 3940 ft | 215 kts | 176° |
| 2026-04-22 23:29 | 28.63153 | -81.32915 | 3649 ft | 215 kts | 176° |
| 2026-04-22 23:29 | 28.61651 | -81.32893 | 3359 ft | 215 kts | 176° |
| 2026-04-22 23:29 | 28.60215 | -81.32876 | 3090 ft | 200 kts | 176° |
| 2026-04-22 23:30 | 28.58869 | -81.32862 | 2815 ft | 184 kts | 175° |
| 2026-04-22 23:30 | 28.57640 | -81.32848 | 2552 ft | 172 kts | 175° |
| 2026-04-22 23:30 | 28.56445 | -81.32832 | 2336 ft | 174 kts | 174° |
| 2026-04-22 23:30 | 28.55220 | -81.32816 | 2111 ft | 178 kts | 174° |
| 2026-04-22 23:31 | 28.53977 | -81.32801 | 1875 ft | 177 kts | 174° |
| 2026-04-22 23:31 | 28.52753 | -81.32788 | 1651 ft | 171 kts | 173° |
| 2026-04-22 23:31 | 28.51606 | -81.32778 | 1426 ft | 162 kts | 173° |
| 2026-04-22 23:31 | 28.50519 | -81.32767 | 1220 ft | 148 kts | 174° |
| 2026-04-22 23:32 | 28.49522 | -81.32755 | 1017 ft | 139 kts | 173° |
| 2026-04-22 23:32 | 28.48545 | -81.32754 | 837 ft | 140 kts | 174° |
| 2026-04-22 23:32 | 28.47567 | -81.32742 | 679 ft | 140 kts | 175° |
| 2026-04-22 23:32 | 28.46589 | -81.32732 | 490 ft | 142 kts | 174° |
| 2026-04-22 23:33 | 28.45591 | -81.32715 | 301 ft | 144 kts | 175° |
| 2026-04-22 23:33 | 28.44572 | -81.32696 | 127 ft | 145 kts | 175° |
| 2026-04-22 23:33 | 28.43607 | -81.32685 | 107 ft | 121 kts | 179° |
| 2026-04-22 23:33 | 28.43013 | -81.32677 | 106 ft | 60 kts | 178° |
| 2026-04-22 23:34 | 28.42694 | -81.32646 | 106 ft | 32 kts | 160° |
| 2026-04-22 23:34 | 28.42563 | -81.32501 | 106 ft | 24 kts | 120° |
| 2026-04-22 23:34 | 28.42479 | -81.32335 | 106 ft | 23 kts | 120° |
| 2026-04-22 23:34 | 28.42399 | -81.32178 | 106 ft | 22 kts | 120° |
| 2026-04-22 23:35 | 28.42344 | -81.32022 | 106 ft | 20 kts | 94° |
| 2026-04-22 23:35 | 28.42346 | -81.31871 | 106 ft | 18 kts | 88° |
| 2026-04-22 23:35 | 28.42349 | -81.31739 | 106 ft | 12 kts | 83° |
| 2026-04-22 23:35 | 28.42393 | -81.31675 | 106 ft | 9 kts | 37° |
| 2026-04-22 23:36 | 28.42448 | -81.31632 | 106 ft | 9 kts | 34° |
| 2026-04-22 23:36 | 28.42509 | -81.31608 | 106 ft | 10 kts | 358° |
| 2026-04-22 23:36 | 28.42587 | -81.31622 | 106 ft | 11 kts | 349° |
| 2026-04-22 23:36 | 28.42665 | -81.31638 | 106 ft | 9 kts | 1° |
| 2026-04-22 23:37 | 28.42707 | -81.31602 | 106 ft | 7 kts | 84° |
| 2026-04-22 23:37 | 28.42689 | -81.31551 | 106 ft | 5 kts | 120° |
| 2026-04-22 23:37 | 28.42679 | -81.31531 | 106 ft | 0 kts | 120° |